sensor_id;sensor_type;location;lat;lon;timestamp;P1;durP1;ratioP1;P2;durP2;ratioP2
75680;SDS011;64294;49.176;16.626;2023-02-01T00:01:26;3.35;;;2.08;;
75680;SDS011;64294;49.176;16.626;2023-02-01T00:03:51;4.97;;;2.63;;
75680;SDS011;64294;49.176;16.626;2023-02-01T00:06:17;4.93;;;2.10;;
75680;SDS011;64294;49.176;16.626;2023-02-01T00:08:42;7.80;;;2.50;;
75680;SDS011;64294;49.176;16.626;2023-02-01T00:11:09;5.20;;;2.00;;
75680;SDS011;64294;49.176;16.626;2023-02-01T00:13:36;4.05;;;1.75;;
75680;SDS011;64294;49.176;16.626;2023-02-01T00:18:30;2.65;;;1.80;;
75680;SDS011;64294;49.176;16.626;2023-02-01T00:20:56;3.05;;;1.80;;
75680;SDS011;64294;49.176;16.626;2023-02-01T00:23:21;2.10;;;1.70;;
75680;SDS011;64294;49.176;16.626;2023-02-01T00:25:47;6.30;;;2.17;;
75680;SDS011;64294;49.176;16.626;2023-02-01T00:28:12;3.60;;;1.90;;
75680;SDS011;64294;49.176;16.626;2023-02-01T00:30:38;4.35;;;2.05;;
75680;SDS011;64294;49.176;16.626;2023-02-01T00:33:03;6.43;;;1.90;;
75680;SDS011;64294;49.176;16.626;2023-02-01T00:35:29;2.85;;;1.80;;
75680;SDS011;64294;49.176;16.626;2023-02-01T00:37:54;6.00;;;2.10;;
75680;SDS011;64294;49.176;16.626;2023-02-01T00:40:20;5.57;;;2.10;;
75680;SDS011;64294;49.176;16.626;2023-02-01T00:42:45;6.22;;;2.45;;
75680;SDS011;64294;49.176;16.626;2023-02-01T00:45:10;3.78;;;1.90;;
75680;SDS011;64294;49.176;16.626;2023-02-01T00:47:36;6.72;;;2.30;;
75680;SDS011;64294;49.176;16.626;2023-02-01T00:50:01;4.00;;;2.25;;
75680;SDS011;64294;49.176;16.626;2023-02-01T00:52:27;4.85;;;2.03;;
75680;SDS011;64294;49.176;16.626;2023-02-01T00:54:52;3.10;;;2.05;;
75680;SDS011;64294;49.176;16.626;2023-02-01T00:57:18;4.10;;;2.00;;
75680;SDS011;64294;49.176;16.626;2023-02-01T00:59:43;5.03;;;2.03;;
75680;SDS011;64294;49.176;16.626;2023-02-01T01:02:09;4.68;;;2.17;;
75680;SDS011;64294;49.176;16.626;2023-02-01T01:04:35;3.72;;;2.08;;
75680;SDS011;64294;49.176;16.626;2023-02-01T01:07:01;4.20;;;1.80;;
75680;SDS011;64294;49.176;16.626;2023-02-01T01:09:26;4.18;;;2.00;;
75680;SDS011;64294;49.176;16.626;2023-02-01T01:11:52;4.32;;;2.00;;
75680;SDS011;64294;49.176;16.626;2023-02-01T01:14:17;3.72;;;2.20;;
75680;SDS011;64294;49.176;16.626;2023-02-01T01:16:43;3.03;;;1.90;;
75680;SDS011;64294;49.176;16.626;2023-02-01T01:19:08;3.35;;;2.00;;
75680;SDS011;64294;49.176;16.626;2023-02-01T01:21:34;7.35;;;2.80;;
75680;SDS011;64294;49.176;16.626;2023-02-01T01:23:59;6.38;;;2.50;;
75680;SDS011;64294;49.176;16.626;2023-02-01T01:26:25;5.63;;;2.28;;
75680;SDS011;64294;49.176;16.626;2023-02-01T01:28:54;4.07;;;2.38;;
75680;SDS011;64294;49.176;16.626;2023-02-01T01:31:20;3.95;;;1.90;;
75680;SDS011;64294;49.176;16.626;2023-02-01T01:33:50;4.70;;;2.13;;
75680;SDS011;64294;49.176;16.626;2023-02-01T01:36:17;6.03;;;2.00;;
75680;SDS011;64294;49.176;16.626;2023-02-01T01:38:43;3.80;;;2.10;;
75680;SDS011;64294;49.176;16.626;2023-02-01T01:41:11;2.45;;;2.00;;
75680;SDS011;64294;49.176;16.626;2023-02-01T01:46:39;4.50;;;2.03;;
75680;SDS011;64294;49.176;16.626;2023-02-01T01:49:15;2.80;;;1.60;;
75680;SDS011;64294;49.176;16.626;2023-02-01T01:51:52;5.07;;;2.05;;
75680;SDS011;64294;49.176;16.626;2023-02-01T01:54:24;4.00;;;2.08;;
75680;SDS011;64294;49.176;16.626;2023-02-01T01:57:11;3.15;;;1.63;;
75680;SDS011;64294;49.176;16.626;2023-02-01T01:59:46;3.55;;;2.00;;
75680;SDS011;64294;49.176;16.626;2023-02-01T02:02:17;3.15;;;1.90;;
75680;SDS011;64294;49.176;16.626;2023-02-01T02:04:43;5.15;;;1.90;;
75680;SDS011;64294;49.176;16.626;2023-02-01T02:07:13;2.83;;;1.80;;
75680;SDS011;64294;49.176;16.626;2023-02-01T02:09:42;4.03;;;2.00;;
75680;SDS011;64294;49.176;16.626;2023-02-01T02:12:08;4.90;;;1.90;;
75680;SDS011;64294;49.176;16.626;2023-02-01T02:14:34;5.97;;;2.08;;
75680;SDS011;64294;49.176;16.626;2023-02-01T02:17:07;3.50;;;1.80;;
75680;SDS011;64294;49.176;16.626;2023-02-01T02:27:25;6.20;;;2.50;;
75680;SDS011;64294;49.176;16.626;2023-02-01T02:35:32;5.22;;;1.90;;
75680;SDS011;64294;49.176;16.626;2023-02-01T02:41:16;2.53;;;1.98;;
75680;SDS011;64294;49.176;16.626;2023-02-01T02:47:22;3.75;;;1.85;;
75680;SDS011;64294;49.176;16.626;2023-02-01T02:50:36;4.50;;;2.08;;
75680;SDS011;64294;49.176;16.626;2023-02-01T02:53:19;2.78;;;2.00;;
75680;SDS011;64294;49.176;16.626;2023-02-01T02:56:08;4.55;;;2.03;;
75680;SDS011;64294;49.176;16.626;2023-02-01T02:58:54;3.72;;;2.20;;
75680;SDS011;64294;49.176;16.626;2023-02-01T03:01:39;3.33;;;2.15;;
75680;SDS011;64294;49.176;16.626;2023-02-01T03:04:23;4.35;;;2.35;;
75680;SDS011;64294;49.176;16.626;2023-02-01T03:06:51;3.30;;;2.10;;
75680;SDS011;64294;49.176;16.626;2023-02-01T03:09:31;4.50;;;2.20;;
75680;SDS011;64294;49.176;16.626;2023-02-01T03:12:00;4.00;;;2.35;;
75680;SDS011;64294;49.176;16.626;2023-02-01T03:14:50;3.30;;;2.15;;
75680;SDS011;64294;49.176;16.626;2023-02-01T03:17:21;4.88;;;2.63;;
75680;SDS011;64294;49.176;16.626;2023-02-01T03:19:53;4.30;;;2.60;;
75680;SDS011;64294;49.176;16.626;2023-02-01T03:22:27;5.22;;;2.70;;
75680;SDS011;64294;49.176;16.626;2023-02-01T03:24:59;4.20;;;2.05;;
75680;SDS011;64294;49.176;16.626;2023-02-01T03:27:40;3.50;;;2.25;;
75680;SDS011;64294;49.176;16.626;2023-02-01T03:33:10;4.43;;;2.30;;
75680;SDS011;64294;49.176;16.626;2023-02-01T03:38:38;5.15;;;2.28;;
75680;SDS011;64294;49.176;16.626;2023-02-01T03:41:10;4.35;;;2.60;;
75680;SDS011;64294;49.176;16.626;2023-02-01T03:43:42;5.57;;;2.80;;
75680;SDS011;64294;49.176;16.626;2023-02-01T03:46:12;6.05;;;2.58;;
75680;SDS011;64294;49.176;16.626;2023-02-01T03:48:45;4.05;;;2.50;;
75680;SDS011;64294;49.176;16.626;2023-02-01T03:51:12;4.50;;;2.80;;
75680;SDS011;64294;49.176;16.626;2023-02-01T03:53:40;5.50;;;2.70;;
75680;SDS011;64294;49.176;16.626;2023-02-01T03:56:08;5.40;;;2.80;;
75680;SDS011;64294;49.176;16.626;2023-02-01T03:58:36;4.80;;;3.10;;
75680;SDS011;64294;49.176;16.626;2023-02-01T04:01:02;6.60;;;2.90;;
75680;SDS011;64294;49.176;16.626;2023-02-01T04:03:27;5.30;;;3.00;;
75680;SDS011;64294;49.176;16.626;2023-02-01T04:05:53;6.82;;;3.10;;
75680;SDS011;64294;49.176;16.626;2023-02-01T04:08:19;8.25;;;2.72;;
75680;SDS011;64294;49.176;16.626;2023-02-01T04:10:45;6.72;;;2.80;;
75680;SDS011;64294;49.176;16.626;2023-02-01T04:13:11;6.13;;;3.15;;
75680;SDS011;64294;49.176;16.626;2023-02-01T04:15:36;7.60;;;3.00;;
75680;SDS011;64294;49.176;16.626;2023-02-01T04:18:02;8.05;;;3.20;;
75680;SDS011;64294;49.176;16.626;2023-02-01T04:20:27;8.30;;;3.28;;
75680;SDS011;64294;49.176;16.626;2023-02-01T04:22:52;9.98;;;4.35;;
75680;SDS011;64294;49.176;16.626;2023-02-01T04:25:18;9.70;;;3.78;;
75680;SDS011;64294;49.176;16.626;2023-02-01T04:27:44;8.20;;;3.65;;
75680;SDS011;64294;49.176;16.626;2023-02-01T04:30:09;6.50;;;3.30;;
75680;SDS011;64294;49.176;16.626;2023-02-01T04:32:36;8.07;;;3.35;;
75680;SDS011;64294;49.176;16.626;2023-02-01T04:35:02;7.10;;;3.15;;
75680;SDS011;64294;49.176;16.626;2023-02-01T04:37:28;9.20;;;3.75;;
75680;SDS011;64294;49.176;16.626;2023-02-01T04:39:54;8.00;;;3.50;;
75680;SDS011;64294;49.176;16.626;2023-02-01T04:42:19;5.65;;;3.38;;
75680;SDS011;64294;49.176;16.626;2023-02-01T04:44:44;6.57;;;3.42;;
75680;SDS011;64294;49.176;16.626;2023-02-01T04:47:10;9.77;;;4.05;;
75680;SDS011;64294;49.176;16.626;2023-02-01T04:49:35;8.20;;;3.90;;
75680;SDS011;64294;49.176;16.626;2023-02-01T04:52:00;7.32;;;4.13;;
75680;SDS011;64294;49.176;16.626;2023-02-01T04:54:26;7.70;;;3.90;;
75680;SDS011;64294;49.176;16.626;2023-02-01T04:56:51;7.70;;;4.20;;
75680;SDS011;64294;49.176;16.626;2023-02-01T04:59:17;6.93;;;3.50;;
75680;SDS011;64294;49.176;16.626;2023-02-01T05:01:42;8.68;;;3.92;;
75680;SDS011;64294;49.176;16.626;2023-02-01T05:04:07;7.13;;;3.63;;
75680;SDS011;64294;49.176;16.626;2023-02-01T05:06:33;6.13;;;3.38;;
75680;SDS011;64294;49.176;16.626;2023-02-01T05:08:58;8.23;;;2.85;;
75680;SDS011;64294;49.176;16.626;2023-02-01T05:11:24;5.25;;;2.70;;
75680;SDS011;64294;49.176;16.626;2023-02-01T05:14:07;5.40;;;2.70;;
75680;SDS011;64294;49.176;16.626;2023-02-01T05:16:33;5.50;;;2.90;;
75680;SDS011;64294;49.176;16.626;2023-02-01T05:18:58;8.00;;;2.72;;
75680;SDS011;64294;49.176;16.626;2023-02-01T05:21:24;5.78;;;2.40;;
75680;SDS011;64294;49.176;16.626;2023-02-01T05:23:49;6.60;;;2.65;;
75680;SDS011;64294;49.176;16.626;2023-02-01T05:26:33;5.60;;;2.40;;
75680;SDS011;64294;49.176;16.626;2023-02-01T05:28:59;4.43;;;2.17;;
75680;SDS011;64294;49.176;16.626;2023-02-01T05:31:24;5.43;;;2.85;;
75680;SDS011;64294;49.176;16.626;2023-02-01T05:33:50;4.93;;;2.08;;
75680;SDS011;64294;49.176;16.626;2023-02-01T05:36:15;7.95;;;2.60;;
75680;SDS011;64294;49.176;16.626;2023-02-01T05:38:41;4.80;;;2.17;;
75680;SDS011;64294;49.176;16.626;2023-02-01T05:41:06;6.32;;;2.10;;
75680;SDS011;64294;49.176;16.626;2023-02-01T05:43:32;4.38;;;2.22;;
75680;SDS011;64294;49.176;16.626;2023-02-01T05:45:57;4.93;;;2.47;;
75680;SDS011;64294;49.176;16.626;2023-02-01T05:48:23;7.18;;;2.90;;
75680;SDS011;64294;49.176;16.626;2023-02-01T05:50:48;7.35;;;3.00;;
75680;SDS011;64294;49.176;16.626;2023-02-01T05:53:14;7.95;;;3.05;;
75680;SDS011;64294;49.176;16.626;2023-02-01T05:55:39;7.07;;;2.55;;
75680;SDS011;64294;49.176;16.626;2023-02-01T05:58:04;4.95;;;2.60;;
75680;SDS011;64294;49.176;16.626;2023-02-01T06:00:30;6.82;;;2.60;;
75680;SDS011;64294;49.176;16.626;2023-02-01T06:02:56;3.97;;;2.33;;
75680;SDS011;64294;49.176;16.626;2023-02-01T06:05:22;4.60;;;2.47;;
75680;SDS011;64294;49.176;16.626;2023-02-01T06:07:47;7.07;;;2.63;;
75680;SDS011;64294;49.176;16.626;2023-02-01T06:10:14;6.43;;;2.47;;
75680;SDS011;64294;49.176;16.626;2023-02-01T06:12:40;5.57;;;2.58;;
75680;SDS011;64294;49.176;16.626;2023-02-01T06:15:06;7.85;;;3.20;;
75680;SDS011;64294;49.176;16.626;2023-02-01T06:17:32;11.10;;;2.80;;
75680;SDS011;64294;49.176;16.626;2023-02-01T06:19:57;9.27;;;3.45;;
75680;SDS011;64294;49.176;16.626;2023-02-01T06:22:22;9.52;;;4.43;;
75680;SDS011;64294;49.176;16.626;2023-02-01T06:24:48;7.70;;;3.40;;
75680;SDS011;64294;49.176;16.626;2023-02-01T06:27:14;6.70;;;3.45;;
75680;SDS011;64294;49.176;16.626;2023-02-01T06:29:39;6.30;;;3.17;;
75680;SDS011;64294;49.176;16.626;2023-02-01T06:32:05;7.07;;;3.30;;
75680;SDS011;64294;49.176;16.626;2023-02-01T06:34:30;6.70;;;3.70;;
75680;SDS011;64294;49.176;16.626;2023-02-01T06:36:56;8.45;;;3.40;;
75680;SDS011;64294;49.176;16.626;2023-02-01T06:39:21;10.30;;;3.30;;
75680;SDS011;64294;49.176;16.626;2023-02-01T06:41:47;7.75;;;2.97;;
75680;SDS011;64294;49.176;16.626;2023-02-01T06:44:13;6.68;;;2.67;;
75680;SDS011;64294;49.176;16.626;2023-02-01T06:46:39;7.70;;;3.20;;
75680;SDS011;64294;49.176;16.626;2023-02-01T06:49:05;6.00;;;2.90;;
75680;SDS011;64294;49.176;16.626;2023-02-01T06:51:30;6.55;;;2.58;;
75680;SDS011;64294;49.176;16.626;2023-02-01T06:53:56;5.45;;;2.85;;
75680;SDS011;64294;49.176;16.626;2023-02-01T06:56:22;10.73;;;3.22;;
75680;SDS011;64294;49.176;16.626;2023-02-01T06:58:48;5.97;;;3.00;;
75680;SDS011;64294;49.176;16.626;2023-02-01T07:01:14;8.63;;;3.25;;
75680;SDS011;64294;49.176;16.626;2023-02-01T07:03:40;10.40;;;3.90;;
75680;SDS011;64294;49.176;16.626;2023-02-01T07:06:06;11.45;;;3.75;;
75680;SDS011;64294;49.176;16.626;2023-02-01T07:08:32;8.52;;;3.60;;
75680;SDS011;64294;49.176;16.626;2023-02-01T07:11:06;8.07;;;3.78;;
75680;SDS011;64294;49.176;16.626;2023-02-01T07:13:33;9.55;;;3.40;;
75680;SDS011;64294;49.176;16.626;2023-02-01T07:15:59;10.00;;;3.40;;
75680;SDS011;64294;49.176;16.626;2023-02-01T07:18:26;10.55;;;3.78;;
75680;SDS011;64294;49.176;16.626;2023-02-01T07:20:53;6.35;;;3.30;;
75680;SDS011;64294;49.176;16.626;2023-02-01T07:23:18;7.47;;;4.00;;
75680;SDS011;64294;49.176;16.626;2023-02-01T07:25:45;5.65;;;3.25;;
75680;SDS011;64294;49.176;16.626;2023-02-01T07:28:10;6.43;;;3.38;;
75680;SDS011;64294;49.176;16.626;2023-02-01T07:30:39;7.32;;;3.58;;
75680;SDS011;64294;49.176;16.626;2023-02-01T07:33:04;11.23;;;3.75;;
75680;SDS011;64294;49.176;16.626;2023-02-01T07:35:32;7.47;;;3.20;;
75680;SDS011;64294;49.176;16.626;2023-02-01T07:37:57;7.72;;;3.03;;
75680;SDS011;64294;49.176;16.626;2023-02-01T07:40:23;6.10;;;2.83;;
75680;SDS011;64294;49.176;16.626;2023-02-01T07:42:56;5.35;;;2.70;;
75680;SDS011;64294;49.176;16.626;2023-02-01T07:45:22;6.90;;;3.03;;
75680;SDS011;64294;49.176;16.626;2023-02-01T07:47:48;5.18;;;2.70;;
75680;SDS011;64294;49.176;16.626;2023-02-01T07:50:14;6.13;;;2.30;;
75680;SDS011;64294;49.176;16.626;2023-02-01T07:52:39;7.35;;;2.80;;
75680;SDS011;64294;49.176;16.626;2023-02-01T07:55:06;4.05;;;2.47;;
75680;SDS011;64294;49.176;16.626;2023-02-01T07:57:32;4.15;;;2.40;;
75680;SDS011;64294;49.176;16.626;2023-02-01T07:59:57;5.85;;;2.80;;
75680;SDS011;64294;49.176;16.626;2023-02-01T08:02:41;4.20;;;2.40;;
75680;SDS011;64294;49.176;16.626;2023-02-01T08:05:06;4.72;;;2.22;;
75680;SDS011;64294;49.176;16.626;2023-02-01T08:07:32;4.18;;;2.40;;
75680;SDS011;64294;49.176;16.626;2023-02-01T08:09:58;5.00;;;2.40;;
75680;SDS011;64294;49.176;16.626;2023-02-01T08:12:24;8.48;;;3.10;;
75680;SDS011;64294;49.176;16.626;2023-02-01T08:14:50;6.85;;;2.67;;
75680;SDS011;64294;49.176;16.626;2023-02-01T08:17:15;5.38;;;2.40;;
75680;SDS011;64294;49.176;16.626;2023-02-01T08:19:41;6.47;;;2.30;;
75680;SDS011;64294;49.176;16.626;2023-02-01T08:22:06;3.60;;;2.13;;
75680;SDS011;64294;49.176;16.626;2023-02-01T08:24:32;3.03;;;2.00;;
75680;SDS011;64294;49.176;16.626;2023-02-01T08:27:00;2.85;;;2.00;;
75680;SDS011;64294;49.176;16.626;2023-02-01T08:29:26;5.25;;;2.30;;
75680;SDS011;64294;49.176;16.626;2023-02-01T08:31:52;4.10;;;2.28;;
75680;SDS011;64294;49.176;16.626;2023-02-01T08:34:19;5.50;;;2.38;;
75680;SDS011;64294;49.176;16.626;2023-02-01T08:36:44;5.22;;;2.38;;
75680;SDS011;64294;49.176;16.626;2023-02-01T08:39:10;4.03;;;2.40;;
75680;SDS011;64294;49.176;16.626;2023-02-01T08:41:36;3.97;;;2.20;;
75680;SDS011;64294;49.176;16.626;2023-02-01T08:44:02;6.22;;;2.53;;
75680;SDS011;64294;49.176;16.626;2023-02-01T08:46:28;5.32;;;2.47;;
75680;SDS011;64294;49.176;16.626;2023-02-01T08:48:53;5.38;;;2.60;;
75680;SDS011;64294;49.176;16.626;2023-02-01T08:51:19;3.85;;;2.30;;
75680;SDS011;64294;49.176;16.626;2023-02-01T08:53:46;6.60;;;2.25;;
75680;SDS011;64294;49.176;16.626;2023-02-01T08:56:13;8.32;;;2.67;;
75680;SDS011;64294;49.176;16.626;2023-02-01T08:58:39;5.55;;;2.45;;
75680;SDS011;64294;49.176;16.626;2023-02-01T09:01:05;5.78;;;2.53;;
75680;SDS011;64294;49.176;16.626;2023-02-01T09:03:41;7.35;;;3.20;;
75680;SDS011;64294;49.176;16.626;2023-02-01T09:06:08;8.00;;;3.63;;
75680;SDS011;64294;49.176;16.626;2023-02-01T09:08:35;9.57;;;4.07;;
75680;SDS011;64294;49.176;16.626;2023-02-01T09:11:03;14.38;;;6.38;;
75680;SDS011;64294;49.176;16.626;2023-02-01T09:13:30;12.82;;;6.60;;
75680;SDS011;64294;49.176;16.626;2023-02-01T09:15:56;12.75;;;6.32;;
75680;SDS011;64294;49.176;16.626;2023-02-01T09:18:22;15.20;;;6.57;;
75680;SDS011;64294;49.176;16.626;2023-02-01T09:20:47;15.90;;;7.90;;
75680;SDS011;64294;49.176;16.626;2023-02-01T09:23:12;16.70;;;8.45;;
75680;SDS011;64294;49.176;16.626;2023-02-01T09:25:38;11.95;;;5.18;;
75680;SDS011;64294;49.176;16.626;2023-02-01T09:28:04;11.43;;;5.90;;
75680;SDS011;64294;49.176;16.626;2023-02-01T09:30:31;10.02;;;4.55;;
75680;SDS011;64294;49.176;16.626;2023-02-01T09:32:58;13.32;;;6.35;;
75680;SDS011;64294;49.176;16.626;2023-02-01T09:35:23;16.55;;;6.00;;
75680;SDS011;64294;49.176;16.626;2023-02-01T09:37:49;13.38;;;5.53;;
75680;SDS011;64294;49.176;16.626;2023-02-01T09:40:15;9.30;;;4.85;;
75680;SDS011;64294;49.176;16.626;2023-02-01T09:42:59;10.25;;;4.20;;
75680;SDS011;64294;49.176;16.626;2023-02-01T09:48:16;7.60;;;3.55;;
75680;SDS011;64294;49.176;16.626;2023-02-01T09:50:50;7.32;;;2.95;;
75680;SDS011;64294;49.176;16.626;2023-02-01T09:53:26;6.78;;;3.45;;
75680;SDS011;64294;49.176;16.626;2023-02-01T09:55:57;10.45;;;3.72;;
75680;SDS011;64294;49.176;16.626;2023-02-01T09:58:32;8.68;;;3.90;;
75680;SDS011;64294;49.176;16.626;2023-02-01T10:01:12;7.68;;;3.90;;
75680;SDS011;64294;49.176;16.626;2023-02-01T10:03:43;7.07;;;3.67;;
75680;SDS011;64294;49.176;16.626;2023-02-01T10:22:39;8.15;;;3.10;;
75680;SDS011;64294;49.176;16.626;2023-02-01T10:25:23;5.82;;;3.20;;
75680;SDS011;64294;49.176;16.626;2023-02-01T10:27:59;6.40;;;2.33;;
75680;SDS011;64294;49.176;16.626;2023-02-01T10:30:30;5.40;;;2.45;;
75680;SDS011;64294;49.176;16.626;2023-02-01T10:33:12;5.13;;;2.30;;
75680;SDS011;64294;49.176;16.626;2023-02-01T10:35:39;6.75;;;2.83;;
75680;SDS011;64294;49.176;16.626;2023-02-01T10:38:08;6.35;;;2.75;;
75680;SDS011;64294;49.176;16.626;2023-02-01T10:40:42;7.30;;;2.85;;
75680;SDS011;64294;49.176;16.626;2023-02-01T10:43:08;7.55;;;3.00;;
75680;SDS011;64294;49.176;16.626;2023-02-01T10:45:35;8.40;;;3.30;;
75680;SDS011;64294;49.176;16.626;2023-02-01T10:48:04;5.10;;;2.83;;
75680;SDS011;64294;49.176;16.626;2023-02-01T10:55:57;4.88;;;2.80;;
75680;SDS011;64294;49.176;16.626;2023-02-01T10:58:30;5.82;;;2.58;;
75680;SDS011;64294;49.176;16.626;2023-02-01T11:03:39;9.18;;;2.95;;
75680;SDS011;64294;49.176;16.626;2023-02-01T11:06:18;7.70;;;2.90;;
75680;SDS011;64294;49.176;16.626;2023-02-01T11:08:52;9.95;;;4.15;;
75680;SDS011;64294;49.176;16.626;2023-02-01T11:11:19;12.25;;;4.30;;
75680;SDS011;64294;49.176;16.626;2023-02-01T11:13:51;6.85;;;3.00;;
75680;SDS011;64294;49.176;16.626;2023-02-01T11:16:19;18.98;;;6.70;;
75680;SDS011;64294;49.176;16.626;2023-02-01T11:18:44;13.57;;;4.07;;
75680;SDS011;64294;49.176;16.626;2023-02-01T11:21:10;8.85;;;3.63;;
75680;SDS011;64294;49.176;16.626;2023-02-01T11:23:43;7.40;;;3.13;;
75680;SDS011;64294;49.176;16.626;2023-02-01T11:28:38;7.20;;;3.58;;
75680;SDS011;64294;49.176;16.626;2023-02-01T11:31:10;6.80;;;3.00;;
75680;SDS011;64294;49.176;16.626;2023-02-01T11:33:39;6.82;;;3.20;;
75680;SDS011;64294;49.176;16.626;2023-02-01T11:36:24;9.07;;;3.10;;
75680;SDS011;64294;49.176;16.626;2023-02-01T11:41:41;9.27;;;4.50;;
75680;SDS011;64294;49.176;16.626;2023-02-01T11:44:21;6.57;;;3.65;;
75680;SDS011;64294;49.176;16.626;2023-02-01T11:46:47;8.45;;;3.63;;
75680;SDS011;64294;49.176;16.626;2023-02-01T11:49:23;7.68;;;3.28;;
75680;SDS011;64294;49.176;16.626;2023-02-01T11:52:06;6.85;;;3.20;;
75680;SDS011;64294;49.176;16.626;2023-02-01T11:57:21;7.03;;;2.70;;
75680;SDS011;64294;49.176;16.626;2023-02-01T12:03:05;8.38;;;3.58;;
75680;SDS011;64294;49.176;16.626;2023-02-01T12:05:47;8.25;;;3.15;;
75680;SDS011;64294;49.176;16.626;2023-02-01T12:19:15;7.30;;;3.00;;
75680;SDS011;64294;49.176;16.626;2023-02-01T12:22:00;6.38;;;3.08;;
75680;SDS011;64294;49.176;16.626;2023-02-01T12:33:26;7.60;;;3.30;;
75680;SDS011;64294;49.176;16.626;2023-02-01T12:49:55;5.18;;;2.70;;
75680;SDS011;64294;49.176;16.626;2023-02-01T12:52:35;9.60;;;3.20;;
75680;SDS011;64294;49.176;16.626;2023-02-01T12:55:07;6.25;;;2.60;;
75680;SDS011;64294;49.176;16.626;2023-02-01T12:57:40;7.30;;;2.30;;
75680;SDS011;64294;49.176;16.626;2023-02-01T13:02:57;7.18;;;2.35;;
75680;SDS011;64294;49.176;16.626;2023-02-01T13:05:30;5.68;;;2.47;;
75680;SDS011;64294;49.176;16.626;2023-02-01T13:08:18;5.15;;;2.30;;
75680;SDS011;64294;49.176;16.626;2023-02-01T13:16:37;4.93;;;2.55;;
75680;SDS011;64294;49.176;16.626;2023-02-01T13:19:15;7.90;;;3.08;;
75680;SDS011;64294;49.176;16.626;2023-02-01T13:21:50;8.98;;;3.03;;
75680;SDS011;64294;49.176;16.626;2023-02-01T13:24:30;6.13;;;2.40;;
75680;SDS011;64294;49.176;16.626;2023-02-01T13:27:00;6.32;;;2.47;;
75680;SDS011;64294;49.176;16.626;2023-02-01T13:29:26;6.95;;;2.50;;
75680;SDS011;64294;49.176;16.626;2023-02-01T13:42:49;5.43;;;2.45;;
75680;SDS011;64294;49.176;16.626;2023-02-01T13:45:18;6.38;;;2.30;;
75680;SDS011;64294;49.176;16.626;2023-02-01T13:47:48;6.75;;;2.60;;
75680;SDS011;64294;49.176;16.626;2023-02-01T13:50:31;5.85;;;2.38;;
75680;SDS011;64294;49.176;16.626;2023-02-01T13:53:01;8.68;;;3.05;;
75680;SDS011;64294;49.176;16.626;2023-02-01T13:55:33;5.57;;;2.10;;
75680;SDS011;64294;49.176;16.626;2023-02-01T13:58:02;5.88;;;2.33;;
75680;SDS011;64294;49.176;16.626;2023-02-01T14:00:35;6.57;;;2.40;;
75680;SDS011;64294;49.176;16.626;2023-02-01T14:23:46;9.35;;;2.20;;
75680;SDS011;64294;49.176;16.626;2023-02-01T14:26:24;6.40;;;2.40;;
75680;SDS011;64294;49.176;16.626;2023-02-01T14:35:04;4.75;;;2.15;;
75680;SDS011;64294;49.176;16.626;2023-02-01T14:42:31;6.68;;;2.40;;
75680;SDS011;64294;49.176;16.626;2023-02-01T14:47:42;8.00;;;2.10;;
75680;SDS011;64294;49.176;16.626;2023-02-01T14:58:48;5.88;;;2.42;;
75680;SDS011;64294;49.176;16.626;2023-02-01T15:03:50;3.85;;;1.77;;
75680;SDS011;64294;49.176;16.626;2023-02-01T15:06:20;3.85;;;1.83;;
75680;SDS011;64294;49.176;16.626;2023-02-01T15:08:46;3.95;;;1.98;;
75680;SDS011;64294;49.176;16.626;2023-02-01T15:11:13;4.10;;;2.00;;
75680;SDS011;64294;49.176;16.626;2023-02-01T15:13:40;5.80;;;2.17;;
75680;SDS011;64294;49.176;16.626;2023-02-01T15:16:15;5.63;;;2.10;;
75680;SDS011;64294;49.176;16.626;2023-02-01T15:18:41;6.18;;;2.00;;
75680;SDS011;64294;49.176;16.626;2023-02-01T15:21:14;2.90;;;1.50;;
75680;SDS011;64294;49.176;16.626;2023-02-01T15:23:43;9.93;;;1.40;;
75680;SDS011;64294;49.176;16.626;2023-02-01T15:26:08;3.65;;;1.40;;
75680;SDS011;64294;49.176;16.626;2023-02-01T15:28:33;2.13;;;1.40;;
75680;SDS011;64294;49.176;16.626;2023-02-01T15:31:00;2.63;;;1.60;;
75680;SDS011;64294;49.176;16.626;2023-02-01T15:33:28;3.70;;;1.65;;
75680;SDS011;64294;49.176;16.626;2023-02-01T15:44:02;2.90;;;1.55;;
75680;SDS011;64294;49.176;16.626;2023-02-01T15:46:47;2.90;;;1.60;;
75680;SDS011;64294;49.176;16.626;2023-02-01T15:55:20;5.35;;;1.95;;
75680;SDS011;64294;49.176;16.626;2023-02-01T15:57:49;4.10;;;1.80;;
75680;SDS011;64294;49.176;16.626;2023-02-01T16:00:22;3.90;;;2.10;;
75680;SDS011;64294;49.176;16.626;2023-02-01T16:02:52;5.15;;;1.80;;
75680;SDS011;64294;49.176;16.626;2023-02-01T16:07:59;5.07;;;1.88;;
75680;SDS011;64294;49.176;16.626;2023-02-01T16:10:30;3.95;;;2.00;;
75680;SDS011;64294;49.176;16.626;2023-02-01T16:12:56;5.63;;;1.90;;
75680;SDS011;64294;49.176;16.626;2023-02-01T16:15:25;5.15;;;2.20;;
75680;SDS011;64294;49.176;16.626;2023-02-01T16:17:51;4.50;;;2.30;;
75680;SDS011;64294;49.176;16.626;2023-02-01T16:20:17;5.93;;;2.10;;
75680;SDS011;64294;49.176;16.626;2023-02-01T16:22:42;4.60;;;2.45;;
75680;SDS011;64294;49.176;16.626;2023-02-01T16:25:08;5.97;;;2.13;;
75680;SDS011;64294;49.176;16.626;2023-02-01T16:27:33;5.97;;;2.40;;
75680;SDS011;64294;49.176;16.626;2023-02-01T16:29:59;8.90;;;3.22;;
75680;SDS011;64294;49.176;16.626;2023-02-01T16:32:24;9.48;;;2.80;;
75680;SDS011;64294;49.176;16.626;2023-02-01T16:34:51;5.88;;;2.95;;
75680;SDS011;64294;49.176;16.626;2023-02-01T16:37:22;6.68;;;3.20;;
75680;SDS011;64294;49.176;16.626;2023-02-01T16:39:50;6.38;;;3.03;;
75680;SDS011;64294;49.176;16.626;2023-02-01T16:42:16;6.53;;;2.47;;
75680;SDS011;64294;49.176;16.626;2023-02-01T16:44:42;9.68;;;3.38;;
75680;SDS011;64294;49.176;16.626;2023-02-01T16:47:17;10.43;;;3.70;;
75680;SDS011;64294;49.176;16.626;2023-02-01T16:49:48;10.60;;;3.10;;
75680;SDS011;64294;49.176;16.626;2023-02-01T16:52:21;7.68;;;3.08;;
75680;SDS011;64294;49.176;16.626;2023-02-01T16:54:49;5.95;;;2.75;;
75680;SDS011;64294;49.176;16.626;2023-02-01T16:57:15;8.18;;;2.72;;
75680;SDS011;64294;49.176;16.626;2023-02-01T16:59:42;5.68;;;2.75;;
75680;SDS011;64294;49.176;16.626;2023-02-01T17:02:13;5.97;;;2.40;;
75680;SDS011;64294;49.176;16.626;2023-02-01T17:04:40;7.22;;;2.67;;
75680;SDS011;64294;49.176;16.626;2023-02-01T17:07:05;10.95;;;3.08;;
75680;SDS011;64294;49.176;16.626;2023-02-01T17:09:37;8.25;;;2.95;;
75680;SDS011;64294;49.176;16.626;2023-02-01T17:12:04;5.90;;;2.78;;
75680;SDS011;64294;49.176;16.626;2023-02-01T17:14:30;7.95;;;2.80;;
75680;SDS011;64294;49.176;16.626;2023-02-01T17:16:57;10.27;;;3.10;;
75680;SDS011;64294;49.176;16.626;2023-02-01T17:19:23;6.13;;;2.38;;
75680;SDS011;64294;49.176;16.626;2023-02-01T17:21:49;6.30;;;2.20;;
75680;SDS011;64294;49.176;16.626;2023-02-01T17:24:19;6.05;;;2.15;;
75680;SDS011;64294;49.176;16.626;2023-02-01T17:26:46;4.78;;;2.00;;
75680;SDS011;64294;49.176;16.626;2023-02-01T17:29:13;6.18;;;2.15;;
75680;SDS011;64294;49.176;16.626;2023-02-01T17:31:39;8.10;;;2.50;;
75680;SDS011;64294;49.176;16.626;2023-02-01T17:34:08;4.68;;;2.33;;
75680;SDS011;64294;49.176;16.626;2023-02-01T17:36:39;6.78;;;2.47;;
75680;SDS011;64294;49.176;16.626;2023-02-01T17:39:05;4.95;;;2.42;;
75680;SDS011;64294;49.176;16.626;2023-02-01T17:41:30;5.35;;;2.25;;
75680;SDS011;64294;49.176;16.626;2023-02-01T17:43:56;8.60;;;2.67;;
75680;SDS011;64294;49.176;16.626;2023-02-01T17:46:21;6.75;;;2.38;;
75680;SDS011;64294;49.176;16.626;2023-02-01T17:48:51;7.53;;;2.45;;